Terminal Aerodrome Forecast
Issued by NWS Central Illinois

Home | Current Version | Previous Version | Text Only | Print | Product List | Glossary On
Versions: 1 2 3 4 5 6 7 8 9 10 11 12 13 14 15 16 17 18 19 20 21 22 23 24 25 26
000
FTUS43 KILX 241740
TAFPIA
TAF
KPIA 241740Z 2418/2518 20012G17KT P6SM SCT025 BKN250
     FM242300 24007KT P6SM VCTS SCT035CB BKN200
     FM250300 25005KT P6SM VCSH SCT040 BKN150
     FM250700 31004KT P6SM SCT045 BKN200
     FM251000 01003KT 6SM BR SCT045 BKN150
     FM251400 36005KT P6SM SCT040 BKN150=

USA.gov is the U.S. government's official web portal to all federal, state and local government web resources and services.